createdAt,value
2018-10-06T00:00:09.555Z,11.86
2018-10-06T00:02:38.916Z,11.95
2018-10-06T00:05:08.523Z,12.03
2018-10-06T00:07:38.106Z,12.00
2018-10-06T00:10:07.631Z,12.07
2018-10-06T00:12:37.036Z,12.06
2018-10-06T00:15:06.335Z,12.14
2018-10-06T00:17:35.921Z,12.13
2018-10-06T00:20:05.358Z,12.28
2018-10-06T00:22:34.950Z,12.09
2018-10-06T00:25:04.352Z,12.17
2018-10-06T00:27:33.625Z,12.29
2018-10-06T00:30:02.879Z,11.88
2018-10-06T00:32:32.353Z,11.90
2018-10-06T00:35:01.551Z,11.97
2018-10-06T00:37:30.952Z,11.80
2018-10-06T00:40:00.251Z,11.90
2018-10-06T00:42:29.654Z,11.73
2018-10-06T00:44:59.055Z,11.89
2018-10-06T00:47:28.457Z,11.84
2018-10-06T00:49:57.859Z,11.98
2018-10-06T00:52:27.261Z,12.04
2018-10-06T00:54:56.666Z,11.93
2018-10-06T00:57:26.076Z,11.78
2018-10-06T00:59:55.362Z,11.66
2018-10-06T01:02:24.657Z,11.81
2018-10-06T01:04:54.073Z,11.79
2018-10-06T01:07:23.467Z,11.79
2018-10-06T01:09:52.809Z,11.69
2018-10-06T01:12:22.270Z,11.73
2018-10-06T01:14:51.798Z,11.79
2018-10-06T01:17:21.177Z,11.64
2018-10-06T01:19:50.578Z,11.71
2018-10-06T01:22:20.053Z,11.73
2018-10-06T01:24:49.366Z,11.67
2018-10-06T01:27:18.706Z,11.60
2018-10-06T01:29:48.085Z,11.72
2018-10-06T01:32:18.727Z,11.79
2018-10-06T01:34:48.118Z,11.59
2018-10-06T01:37:17.524Z,11.67
2018-10-06T01:39:46.774Z,11.71
2018-10-06T01:42:16.219Z,11.64
2018-10-06T01:44:46.133Z,11.73
2018-10-06T01:47:15.540Z,11.60
2018-10-06T01:49:45.062Z,11.74
2018-10-06T01:52:14.747Z,11.76
2018-10-06T01:54:44.210Z,11.34
2018-10-06T01:57:13.858Z,11.50
2018-10-06T01:59:43.363Z,11.50
2018-10-06T02:02:12.832Z,11.49
2018-10-06T02:04:42.240Z,11.47
2018-10-06T02:07:11.738Z,11.66
2018-10-06T02:09:41.280Z,11.55
2018-10-06T02:12:10.539Z,11.52
2018-10-06T02:14:39.864Z,11.55
2018-10-06T02:17:09.332Z,11.56
2018-10-06T02:19:38.680Z,11.52
2018-10-06T02:22:08.132Z,11.55
2018-10-06T02:24:37.404Z,11.41
2018-10-06T02:27:07.387Z,11.38
2018-10-06T02:29:36.694Z,11.45
2018-10-06T02:32:06.507Z,11.29
2018-10-06T02:34:36.114Z,11.44
2018-10-06T02:37:05.416Z,11.51
2018-10-06T02:39:34.873Z,11.48
2018-10-06T02:42:04.222Z,11.61
2018-10-06T02:44:33.722Z,11.57
2018-10-06T02:47:03.329Z,11.59
2018-10-06T02:49:32.808Z,11.62
2018-10-06T02:52:02.338Z,11.71
2018-10-06T02:54:31.842Z,11.44
2018-10-06T02:57:01.475Z,11.60
2018-10-06T02:59:30.782Z,11.50
2018-10-06T03:02:00.030Z,11.50
2018-10-06T03:04:29.653Z,11.49
2018-10-06T03:06:59.115Z,11.45
2018-10-06T03:09:28.558Z,11.50
2018-10-06T03:11:58.064Z,11.45
2018-10-06T03:14:27.571Z,11.45
2018-10-06T03:16:57.031Z,11.42
2018-10-06T03:19:26.570Z,11.40
2018-10-06T03:21:56.036Z,11.44
2018-10-06T03:24:25.303Z,11.43
2018-10-06T03:26:54.686Z,11.39
2018-10-06T03:29:24.285Z,11.45
2018-10-06T03:34:21.860Z,11.43
2018-10-06T03:36:51.262Z,11.36
2018-10-06T03:39:20.767Z,11.38
2018-10-06T03:41:50.224Z,11.36
2018-10-06T03:44:19.514Z,11.38
2018-10-06T03:46:48.868Z,11.36
2018-10-06T03:49:18.476Z,11.36
2018-10-06T03:51:47.723Z,11.31
2018-10-06T03:54:17.281Z,11.29
2018-10-06T03:56:46.741Z,11.24
2018-10-06T03:59:17.209Z,11.17
2018-10-06T04:01:46.612Z,11.13
2018-10-06T04:04:16.014Z,11.16
2018-10-06T04:06:45.312Z,11.09
2018-10-06T04:09:14.715Z,11.09
2018-10-06T04:11:44.220Z,11.05
2018-10-06T04:14:13.622Z,11.10
2018-10-06T04:16:42.854Z,11.13
2018-10-06T04:19:12.427Z,11.11
2018-10-06T04:21:47.765Z,11.11
2018-10-06T04:24:19.215Z,11.04
2018-10-06T04:26:48.617Z,11.04
2018-10-06T04:29:18.019Z,11.07
2018-10-06T04:31:47.424Z,11.07
2018-10-06T04:34:16.732Z,10.67
2018-10-06T04:36:46.326Z,11.01
2018-10-06T04:39:15.628Z,11.03
2018-10-06T04:41:45.024Z,11.02
2018-10-06T04:44:14.436Z,10.95
2018-10-06T04:46:43.831Z,11.03
2018-10-06T04:49:13.131Z,11.01
2018-10-06T04:51:42.430Z,10.95
2018-10-06T04:54:11.935Z,10.96
2018-10-06T04:56:41.160Z,10.95
2018-10-06T04:59:10.737Z,10.93
2018-10-06T05:01:40.141Z,10.93
2018-10-06T05:04:09.648Z,10.94
2018-10-06T05:06:40.286Z,10.93
2018-10-06T05:09:10.089Z,10.95
2018-10-06T05:11:39.528Z,10.89
2018-10-06T05:14:10.079Z,10.82
2018-10-06T05:16:39.731Z,10.84
2018-10-06T05:19:09.310Z,10.81
2018-10-06T05:21:38.938Z,10.77
2018-10-06T05:24:09.672Z,10.77
2018-10-06T05:26:39.073Z,10.79
2018-10-06T05:29:08.693Z,10.76
2018-10-06T05:31:38.038Z,10.77
2018-10-06T05:34:07.736Z,10.74
2018-10-06T05:36:37.263Z,10.82
2018-10-06T05:39:09.168Z,10.67
2018-10-06T05:41:38.726Z,10.68
2018-10-06T05:44:08.060Z,10.72
2018-10-06T05:46:37.702Z,10.77
2018-10-06T05:49:07.376Z,10.79
2018-10-06T05:51:36.882Z,10.79
2018-10-06T05:54:06.384Z,10.86
2018-10-06T05:56:35.846Z,10.91
2018-10-06T05:59:05.406Z,10.90
2018-10-06T06:01:34.793Z,10.89
2018-10-06T06:04:04.268Z,10.88
2018-10-06T06:06:33.834Z,10.93
2018-10-06T06:09:03.204Z,10.95
2018-10-06T06:11:32.672Z,10.96
2018-10-06T06:14:02.180Z,11.13
2018-10-06T06:16:31.820Z,11.24
2018-10-06T06:19:01.114Z,11.10
2018-10-06T06:21:30.725Z,11.14
2018-10-06T06:24:00.200Z,11.19
2018-10-06T06:26:29.632Z,11.19
2018-10-06T06:28:59.346Z,11.43
2018-10-06T06:31:28.730Z,11.47
2018-10-06T06:33:58.205Z,11.51
2018-10-06T06:36:27.648Z,11.12
2018-10-06T06:38:57.118Z,11.66
2018-10-06T06:41:26.657Z,11.83
2018-10-06T06:43:56.226Z,11.98
2018-10-06T06:46:25.664Z,12.10
2018-10-06T06:48:55.067Z,12.22
2018-10-06T06:51:24.525Z,12.25
2018-10-06T06:53:53.973Z,12.46
2018-10-06T06:56:23.576Z,12.54
2018-10-06T06:58:53.084Z,12.68
2018-10-06T07:01:23.614Z,12.79
2018-10-06T07:03:52.933Z,12.94
2018-10-06T07:06:22.518Z,13.05
2018-10-06T07:08:51.920Z,13.17
2018-10-06T07:11:21.526Z,13.46
2018-10-06T07:13:51.132Z,13.73
2018-10-06T07:16:20.601Z,13.91
2018-10-06T07:18:49.940Z,14.14
2018-10-06T07:21:19.441Z,14.35
2018-10-06T07:23:49.150Z,14.47
2018-10-06T07:26:18.763Z,14.69
2018-10-06T07:28:48.472Z,14.83
2018-10-06T07:31:17.901Z,15.09
2018-10-06T07:33:47.371Z,15.27
2018-10-06T07:36:16.772Z,15.54
2018-10-06T07:38:46.123Z,15.75
2018-10-06T07:41:16.703Z,15.98
2018-10-06T07:43:46.104Z,16.23
2018-10-06T07:46:15.566Z,16.35
2018-10-06T07:48:45.113Z,16.54
2018-10-06T07:51:14.721Z,16.93
2018-10-06T07:53:43.966Z,17.06
2018-10-06T07:56:13.425Z,17.14
2018-10-06T07:58:42.899Z,17.27
2018-10-06T08:01:12.224Z,17.28
2018-10-06T08:03:41.627Z,17.12
2018-10-06T08:06:11.078Z,17.16
2018-10-06T08:08:40.367Z,17.30
2018-10-06T08:11:09.836Z,17.57
2018-10-06T08:13:39.180Z,17.71
2018-10-06T08:16:08.738Z,17.85
2018-10-06T08:18:38.035Z,18.01
2018-10-06T08:21:07.437Z,18.16
2018-10-06T08:23:36.839Z,18.33
2018-10-06T08:26:12.898Z,18.55
2018-10-06T08:28:42.302Z,18.69
2018-10-06T08:31:11.597Z,19.11
2018-10-06T08:33:41.004Z,19.65
2018-10-06T08:36:10.405Z,20.28
2018-10-06T08:38:39.702Z,21.17
2018-10-06T08:41:08.999Z,21.96
2018-10-06T08:43:38.414Z,22.72
2018-10-06T08:46:07.909Z,23.39
2018-10-06T08:48:37.315Z,23.69
2018-10-06T08:51:07.017Z,23.98
2018-10-06T08:53:36.421Z,24.18
2018-10-06T08:56:06.139Z,24.26
2018-10-06T08:58:35.429Z,24.21
2018-10-06T09:01:04.948Z,24.15
2018-10-06T09:03:34.437Z,24.20
2018-10-06T09:06:03.901Z,24.25
2018-10-06T09:08:33.446Z,23.99
2018-10-06T09:11:02.924Z,23.81
2018-10-06T09:13:32.352Z,23.82
2018-10-06T09:16:01.922Z,23.90
2018-10-06T09:18:31.772Z,24.05
2018-10-06T09:21:01.099Z,24.22
2018-10-06T09:23:30.533Z,24.27
2018-10-06T09:26:00.078Z,23.98
2018-10-06T09:28:29.580Z,24.55
2018-10-06T09:30:59.701Z,24.76
2018-10-06T09:33:29.145Z,24.79
2018-10-06T09:35:58.606Z,24.61
2018-10-06T09:38:28.116Z,24.42
2018-10-06T09:40:58.638Z,24.38
2018-10-06T09:43:28.145Z,24.39
2018-10-06T09:45:57.749Z,24.19
2018-10-06T09:48:27.194Z,24.35
2018-10-06T09:50:56.667Z,24.41
2018-10-06T09:53:26.136Z,24.37
2018-10-06T09:55:55.664Z,24.58
2018-10-06T09:58:25.224Z,24.76
2018-10-06T10:01:00.203Z,24.79
2018-10-06T10:03:35.394Z,24.70
2018-10-06T10:06:04.945Z,24.83
2018-10-06T10:08:34.248Z,24.52
2018-10-06T10:11:03.694Z,24.53
2018-10-06T10:13:33.152Z,24.60
2018-10-06T10:16:02.494Z,24.70
2018-10-06T10:18:31.809Z,24.60
2018-10-06T10:21:01.236Z,24.72
2018-10-06T10:23:31.145Z,24.86
2018-10-06T10:26:00.573Z,24.81
2018-10-06T10:28:30.180Z,24.95
2018-10-06T10:30:59.681Z,24.95
2018-10-06T10:33:28.945Z,25.17
2018-10-06T10:35:58.384Z,25.29
2018-10-06T10:38:27.683Z,25.67
2018-10-06T10:40:57.152Z,25.89
2018-10-06T10:43:26.540Z,23.62
2018-10-06T10:45:55.994Z,25.69
2018-10-06T10:48:25.523Z,25.68
2018-10-06T10:50:55.317Z,25.42
2018-10-06T10:53:24.754Z,25.45
2018-10-06T10:55:54.319Z,25.24
2018-10-06T10:58:23.720Z,25.33
2018-10-06T11:00:53.179Z,24.97
2018-10-06T11:03:22.452Z,25.32
2018-10-06T11:05:51.923Z,25.20
2018-10-06T11:08:21.425Z,25.13
2018-10-06T11:10:50.932Z,24.97
2018-10-06T11:13:20.337Z,25.05
2018-10-06T11:15:49.839Z,25.24
2018-10-06T11:18:19.050Z,25.41
2018-10-06T11:20:48.538Z,25.10
2018-10-06T11:23:17.947Z,25.22
2018-10-06T11:25:47.548Z,25.60
2018-10-06T11:28:16.950Z,25.69
2018-10-06T11:30:46.554Z,25.94
2018-10-06T11:33:15.955Z,25.60
2018-10-06T11:35:45.236Z,25.76
2018-10-06T11:38:14.550Z,25.48
2018-10-06T11:40:43.951Z,25.55
2018-10-06T11:43:13.360Z,25.86
2018-10-06T11:45:42.864Z,26.33
2018-10-06T11:48:12.369Z,26.05
2018-10-06T11:50:41.868Z,26.06
2018-10-06T11:53:11.787Z,25.91
2018-10-06T11:55:42.213Z,25.73
2018-10-06T11:58:11.442Z,25.75
2018-10-06T12:00:40.942Z,25.55
2018-10-06T12:03:10.417Z,25.35
2018-10-06T12:05:39.932Z,25.64
2018-10-06T12:08:09.426Z,25.48
2018-10-06T12:10:38.751Z,25.24
2018-10-06T12:13:08.436Z,25.06
2018-10-06T12:15:37.837Z,24.99
2018-10-06T12:18:07.386Z,25.16
2018-10-06T12:20:37.003Z,25.51
2018-10-06T12:23:06.455Z,25.73
2018-10-06T12:25:35.854Z,25.76
2018-10-06T12:28:05.095Z,25.72
2018-10-06T12:30:34.660Z,25.67
2018-10-06T12:33:04.060Z,25.65
2018-10-06T12:35:33.588Z,25.71
2018-10-06T12:38:03.567Z,26.16
2018-10-06T12:40:33.644Z,26.13
2018-10-06T12:43:03.630Z,25.94
2018-10-06T12:45:33.898Z,25.81
2018-10-06T12:48:03.947Z,25.50
2018-10-06T12:50:33.765Z,25.43
2018-10-06T12:53:03.792Z,25.29
2018-10-06T12:55:34.229Z,25.30
2018-10-06T12:58:04.126Z,25.12
2018-10-06T13:00:34.314Z,24.93
2018-10-06T13:03:04.004Z,24.91
2018-10-06T13:05:33.863Z,24.87
2018-10-06T13:08:03.791Z,24.74
2018-10-06T13:10:33.794Z,24.78
2018-10-06T13:13:03.783Z,24.67
2018-10-06T13:15:33.726Z,24.74
2018-10-06T13:18:03.903Z,24.76
2018-10-06T13:20:34.084Z,24.78
2018-10-06T13:23:03.875Z,24.61
2018-10-06T13:25:33.608Z,24.63
2018-10-06T13:28:03.704Z,24.53
2018-10-06T13:30:34.083Z,24.78
2018-10-06T13:33:03.755Z,24.85
2018-10-06T13:35:33.343Z,24.80
2018-10-06T13:38:02.855Z,24.67
2018-10-06T13:40:32.471Z,24.87
2018-10-06T13:43:02.977Z,24.77
2018-10-06T13:45:32.793Z,24.34
2018-10-06T13:48:02.622Z,24.34
2018-10-06T13:50:32.793Z,24.34
2018-10-06T13:53:02.643Z,24.12
2018-10-06T13:55:32.562Z,24.21
2018-10-06T13:58:02.385Z,24.34
2018-10-06T14:00:32.241Z,24.29
2018-10-06T14:03:01.896Z,24.22
2018-10-06T14:05:31.844Z,24.13
2018-10-06T14:08:01.813Z,24.25
2018-10-06T14:10:31.855Z,24.17
2018-10-06T14:13:01.951Z,24.27
2018-10-06T14:15:31.914Z,24.04
2018-10-06T14:18:01.995Z,24.34
2018-10-06T14:20:31.947Z,24.34
2018-10-06T14:23:02.423Z,24.12
2018-10-06T14:25:32.088Z,24.25
2018-10-06T14:28:02.058Z,24.15
2018-10-06T14:30:31.971Z,24.30
2018-10-06T14:33:02.166Z,24.51
2018-10-06T14:35:32.166Z,24.22
2018-10-06T14:38:02.187Z,24.28
2018-10-06T14:40:31.934Z,24.60
2018-10-06T14:43:01.864Z,24.36
2018-10-06T14:45:32.001Z,24.43
2018-10-06T14:48:02.104Z,24.34
2018-10-06T14:50:31.515Z,24.29
2018-10-06T14:53:00.984Z,24.37
2018-10-06T14:55:30.498Z,24.47
2018-10-06T14:58:02.835Z,24.66
2018-10-06T15:00:33.481Z,24.57
2018-10-06T15:03:04.768Z,24.62
2018-10-06T15:05:35.411Z,24.61
2018-10-06T15:08:06.547Z,24.39
2018-10-06T15:10:37.088Z,24.27
2018-10-06T15:13:08.066Z,24.28
2018-10-06T15:15:38.645Z,24.11
2018-10-06T15:18:09.229Z,24.13
2018-10-06T15:20:38.740Z,24.04
2018-10-06T15:23:08.243Z,24.13
2018-10-06T15:25:37.645Z,24.08
2018-10-06T15:28:07.055Z,24.09
2018-10-06T15:30:36.556Z,23.88
2018-10-06T15:33:06.160Z,24.00
2018-10-06T15:35:35.364Z,24.17
2018-10-06T15:38:04.863Z,24.01
2018-10-06T15:40:34.363Z,23.67
2018-10-06T15:43:03.954Z,23.52
2018-10-06T15:45:33.376Z,23.42
2018-10-06T15:48:02.732Z,23.25
2018-10-06T15:50:32.485Z,23.07
2018-10-06T15:53:01.756Z,22.92
2018-10-06T15:55:31.186Z,22.87
2018-10-06T15:58:00.491Z,23.06
2018-10-06T16:00:29.801Z,22.97
2018-10-06T16:02:59.350Z,22.90
2018-10-06T16:05:28.795Z,22.82
2018-10-06T16:07:58.094Z,22.56
2018-10-06T16:10:27.496Z,22.46
2018-10-06T16:13:00.018Z,22.45
2018-10-06T16:15:29.578Z,22.45
2018-10-06T16:17:59.148Z,22.18
2018-10-06T16:20:28.586Z,22.12
2018-10-06T16:22:58.091Z,22.09
2018-10-06T16:25:27.394Z,22.19
2018-10-06T16:27:56.895Z,22.44
2018-10-06T16:30:26.449Z,22.46
2018-10-06T16:32:56.006Z,22.35
2018-10-06T16:35:25.510Z,22.46
2018-10-06T16:37:55.017Z,22.42
2018-10-06T16:40:24.518Z,22.19
2018-10-06T16:42:54.233Z,22.26
2018-10-06T16:45:23.699Z,22.23
2018-10-06T16:47:53.240Z,22.20
2018-10-06T16:50:22.845Z,21.99
2018-10-06T16:52:52.450Z,21.90
2018-10-06T16:55:22.058Z,21.94
2018-10-06T16:57:51.666Z,21.92
2018-10-06T17:00:21.085Z,21.74
2018-10-06T17:02:51.391Z,21.83
2018-10-06T17:05:20.894Z,21.75
2018-10-06T17:07:50.719Z,21.74
2018-10-06T17:10:19.898Z,21.67
2018-10-06T17:12:49.284Z,21.74
2018-10-06T17:15:18.912Z,21.70
2018-10-06T17:17:55.879Z,21.70
2018-10-06T17:20:25.499Z,21.61
2018-10-06T17:22:55.517Z,21.48
2018-10-06T17:25:24.967Z,21.43
2018-10-06T17:27:54.320Z,21.47
2018-10-06T17:30:23.824Z,21.45
2018-10-06T17:32:53.325Z,21.42
2018-10-06T17:35:22.833Z,21.44
2018-10-06T17:37:52.439Z,21.37
2018-10-06T17:40:21.845Z,21.39
2018-10-06T17:42:51.450Z,21.38
2018-10-06T17:45:20.951Z,21.34
2018-10-06T17:47:50.560Z,21.32
2018-10-06T17:50:20.305Z,21.24
2018-10-06T17:52:49.878Z,21.18
2018-10-06T17:55:19.362Z,21.17
2018-10-06T17:57:51.130Z,21.11
2018-10-06T18:00:22.095Z,21.13
2018-10-06T18:02:51.988Z,21.11
2018-10-06T18:05:21.397Z,21.05
2018-10-06T18:07:50.893Z,20.93
2018-10-06T18:10:20.250Z,20.91
2018-10-06T18:12:49.774Z,20.88
2018-10-06T18:15:19.317Z,20.84
2018-10-06T18:17:48.912Z,20.77
2018-10-06T18:20:18.677Z,20.72
2018-10-06T18:22:50.310Z,20.71
2018-10-06T18:25:19.985Z,20.63
2018-10-06T18:27:49.447Z,20.59
2018-10-06T18:30:19.098Z,20.53
2018-10-06T18:32:48.600Z,20.54
2018-10-06T18:35:18.107Z,20.52
2018-10-06T18:37:47.608Z,20.44
2018-10-06T18:40:17.318Z,20.31
2018-10-06T18:42:46.823Z,20.25
2018-10-06T18:45:16.800Z,19.97
2018-10-06T18:47:46.145Z,20.00
2018-10-06T18:50:15.511Z,19.92
2018-10-06T18:52:44.942Z,19.80
2018-10-06T18:55:14.447Z,19.79
2018-10-06T18:57:44.230Z,19.69
2018-10-06T19:00:19.908Z,19.77
2018-10-06T19:02:56.101Z,19.67
2018-10-06T19:05:25.571Z,19.64
2018-10-06T19:07:55.079Z,19.68
2018-10-06T19:10:24.521Z,19.72
2018-10-06T19:12:53.879Z,19.66
2018-10-06T19:15:23.393Z,19.72
2018-10-06T19:17:52.752Z,19.63
2018-10-06T19:20:22.291Z,19.52
2018-10-06T19:22:51.647Z,19.45
2018-10-06T19:25:21.197Z,19.40
2018-10-06T19:27:50.544Z,19.45
2018-10-06T19:30:20.304Z,19.48
2018-10-06T19:32:50.017Z,19.52
2018-10-06T19:35:19.488Z,19.58
2018-10-06T19:37:48.925Z,19.57
2018-10-06T19:40:18.294Z,19.55
2018-10-06T19:42:47.730Z,19.56
2018-10-06T19:45:16.981Z,19.51
2018-10-06T19:47:47.352Z,19.55
2018-10-06T19:50:17.059Z,19.51
2018-10-06T19:52:46.461Z,19.35
2018-10-06T19:55:16.169Z,19.24
2018-10-06T19:57:45.675Z,19.30
2018-10-06T20:00:15.002Z,19.31
2018-10-06T20:02:44.582Z,19.38
2018-10-06T20:05:13.982Z,19.34
2018-10-06T20:07:43.487Z,19.31
2018-10-06T20:10:12.787Z,19.21
2018-10-06T20:12:42.658Z,19.22
2018-10-06T20:15:12.004Z,19.27
2018-10-06T20:17:41.406Z,19.26
2018-10-06T20:20:11.009Z,19.22
2018-10-06T20:22:40.405Z,19.19
2018-10-06T20:25:09.763Z,19.19
2018-10-06T20:27:39.422Z,19.16
2018-10-06T20:30:09.129Z,19.15
2018-10-06T20:32:38.534Z,19.13
2018-10-06T20:35:11.111Z,19.14
2018-10-06T20:37:42.764Z,19.14
2018-10-06T20:40:12.189Z,19.04
2018-10-06T20:42:41.873Z,19.03
2018-10-06T20:45:11.276Z,18.98
2018-10-06T20:47:40.780Z,18.99
2018-10-06T20:50:10.181Z,18.95
2018-10-06T20:52:39.585Z,18.92
2018-10-06T20:55:08.986Z,18.90
2018-10-06T20:57:38.387Z,18.83
2018-10-06T21:00:08.965Z,18.77
2018-10-06T21:02:38.521Z,18.67
2018-10-06T21:05:08.027Z,18.61
2018-10-06T21:07:37.428Z,18.53
2018-10-06T21:10:06.830Z,18.50
2018-10-06T21:12:36.233Z,18.43
2018-10-06T21:15:06.713Z,18.40
2018-10-06T21:17:36.374Z,18.38
2018-10-06T21:20:05.977Z,18.35
2018-10-06T21:22:35.375Z,18.12
2018-10-06T21:25:04.658Z,18.00
2018-10-06T21:27:35.146Z,17.98
2018-10-06T21:30:04.914Z,17.96
2018-10-06T21:32:35.339Z,17.99
2018-10-06T21:35:04.844Z,17.98
2018-10-06T21:37:34.450Z,17.94
2018-10-06T21:40:03.956Z,17.79
2018-10-06T21:42:33.360Z,17.80
2018-10-06T21:45:02.867Z,17.84
2018-10-06T21:47:32.365Z,17.77
2018-10-06T21:50:01.775Z,17.85
2018-10-06T21:52:31.432Z,17.84
2018-10-06T21:55:00.777Z,17.87
2018-10-06T21:57:30.383Z,17.94
2018-10-06T21:59:59.886Z,18.06
2018-10-06T22:02:29.391Z,17.99
2018-10-06T22:04:58.895Z,17.97
2018-10-06T22:07:28.501Z,17.95
2018-10-06T22:09:57.801Z,18.12
2018-10-06T22:12:27.307Z,18.00
2018-10-06T22:14:56.912Z,17.74
2018-10-06T22:17:26.314Z,17.61
2018-10-06T22:19:55.922Z,17.46
2018-10-06T22:24:45.507Z,17.17
2018-10-06T22:27:14.816Z,17.16
2018-10-06T22:29:45.441Z,17.17
2018-10-06T22:32:15.150Z,17.18
2018-10-06T22:34:44.628Z,17.20
2018-10-06T22:37:14.055Z,17.13
2018-10-06T22:39:43.429Z,17.14
2018-10-06T22:42:12.959Z,16.84
2018-10-06T22:44:43.284Z,17.12
2018-10-06T22:47:12.788Z,17.14
2018-10-06T22:49:42.291Z,17.14
2018-10-06T22:52:11.763Z,17.04
2018-10-06T22:54:41.199Z,17.02
2018-10-06T22:57:10.644Z,16.98
2018-10-06T22:59:40.206Z,16.87
2018-10-06T23:02:09.407Z,16.87
2018-10-06T23:04:38.868Z,16.84
2018-10-06T23:07:08.310Z,16.82
2018-10-06T23:09:37.623Z,16.78
2018-10-06T23:12:07.140Z,16.85
2018-10-06T23:14:36.612Z,16.71
2018-10-06T23:17:06.121Z,16.63
2018-10-06T23:19:35.460Z,16.64
2018-10-06T23:22:04.924Z,16.62
2018-10-06T23:24:34.527Z,16.75
2018-10-06T23:27:04.242Z,16.61
2018-10-06T23:29:33.746Z,16.45
2018-10-06T23:32:03.068Z,16.32
2018-10-06T23:34:32.552Z,16.31
2018-10-06T23:37:02.037Z,16.28
2018-10-06T23:39:31.457Z,16.29
2018-10-06T23:42:00.961Z,16.21
2018-10-06T23:44:30.177Z,16.32
2018-10-06T23:46:59.559Z,16.20
2018-10-06T23:49:28.861Z,16.32
2018-10-06T23:51:58.261Z,16.13
2018-10-06T23:54:27.663Z,16.05
2018-10-06T23:56:56.915Z,15.99
2018-10-06T23:59:26.365Z,16.04
